sensor_id;sensor_type;location;lat;lon;timestamp;P1;durP1;ratioP1;P2;durP2;ratioP2
53618;SDS011;68717;53.040;18.488;2024-01-30T00:00:07;96.65;;;38.00;;
53618;SDS011;68717;53.040;18.488;2024-01-30T00:00:21;95.53;;;37.45;;
53618;SDS011;68717;53.040;18.488;2024-01-30T00:00:55;94.78;;;37.55;;
53618;SDS011;68717;53.040;18.488;2024-01-30T00:01:28;99.43;;;38.92;;
53618;SDS011;68717;53.040;18.488;2024-01-30T00:01:42;95.68;;;38.53;;
53618;SDS011;68717;53.040;18.488;2024-01-30T00:01:56;97.10;;;38.78;;
53618;SDS011;68717;53.040;18.488;2024-01-30T00:02:09;91.70;;;37.53;;
53618;SDS011;68717;53.040;18.488;2024-01-30T00:02:22;86.28;;;36.28;;
53618;SDS011;68717;53.040;18.488;2024-01-30T00:02:35;89.45;;;36.30;;
53618;SDS011;68717;53.040;18.488;2024-01-30T00:02:49;91.68;;;37.30;;
53618;SDS011;68717;53.040;18.488;2024-01-30T00:03:02;91.85;;;37.67;;
53618;SDS011;68717;53.040;18.488;2024-01-30T00:03:16;92.38;;;38.45;;
53618;SDS011;68717;53.040;18.488;2024-01-30T00:03:29;89.07;;;38.05;;
53618;SDS011;68717;53.040;18.488;2024-01-30T00:03:42;86.38;;;36.80;;
53618;SDS011;68717;53.040;18.488;2024-01-30T00:03:55;85.70;;;36.38;;
53618;SDS011;68717;53.040;18.488;2024-01-30T00:04:08;81.22;;;36.10;;
53618;SDS011;68717;53.040;18.488;2024-01-30T00:04:21;81.50;;;35.63;;
53618;SDS011;68717;53.040;18.488;2024-01-30T00:04:34;82.05;;;35.00;;
53618;SDS011;68717;53.040;18.488;2024-01-30T00:04:47;82.35;;;35.15;;
53618;SDS011;68717;53.040;18.488;2024-01-30T00:05:01;86.90;;;36.25;;
53618;SDS011;68717;53.040;18.488;2024-01-30T00:05:17;87.93;;;36.78;;
53618;SDS011;68717;53.040;18.488;2024-01-30T00:05:30;82.35;;;36.17;;
53618;SDS011;68717;53.040;18.488;2024-01-30T00:05:44;79.70;;;35.15;;
53618;SDS011;68717;53.040;18.488;2024-01-30T00:05:57;76.80;;;34.08;;
53618;SDS011;68717;53.040;18.488;2024-01-30T00:06:11;79.25;;;34.13;;
53618;SDS011;68717;53.040;18.488;2024-01-30T00:06:24;79.38;;;34.63;;
53618;SDS011;68717;53.040;18.488;2024-01-30T00:06:37;75.07;;;34.10;;
53618;SDS011;68717;53.040;18.488;2024-01-30T00:06:50;77.13;;;34.20;;
53618;SDS011;68717;53.040;18.488;2024-01-30T00:07:05;78.25;;;34.40;;
53618;SDS011;68717;53.040;18.488;2024-01-30T00:07:18;74.80;;;33.80;;
53618;SDS011;68717;53.040;18.488;2024-01-30T00:07:32;74.53;;;33.67;;
53618;SDS011;68717;53.040;18.488;2024-01-30T00:07:45;77.30;;;34.50;;
53618;SDS011;68717;53.040;18.488;2024-01-30T00:07:58;75.13;;;34.30;;
53618;SDS011;68717;53.040;18.488;2024-01-30T00:08:11;75.15;;;33.53;;
53618;SDS011;68717;53.040;18.488;2024-01-30T00:08:24;74.90;;;33.25;;
53618;SDS011;68717;53.040;18.488;2024-01-30T00:08:39;76.18;;;33.67;;
53618;SDS011;68717;53.040;18.488;2024-01-30T00:08:53;74.95;;;33.90;;
53618;SDS011;68717;53.040;18.488;2024-01-30T00:09:06;74.25;;;34.03;;
53618;SDS011;68717;53.040;18.488;2024-01-30T00:09:20;73.43;;;34.20;;
53618;SDS011;68717;53.040;18.488;2024-01-30T00:09:32;72.25;;;33.92;;
53618;SDS011;68717;53.040;18.488;2024-01-30T00:09:46;69.10;;;33.00;;
53618;SDS011;68717;53.040;18.488;2024-01-30T00:09:59;69.68;;;33.25;;
53618;SDS011;68717;53.040;18.488;2024-01-30T00:10:12;69.53;;;33.55;;
53618;SDS011;68717;53.040;18.488;2024-01-30T00:10:26;68.15;;;32.92;;
53618;SDS011;68717;53.040;18.488;2024-01-30T00:10:39;66.82;;;31.70;;
53618;SDS011;68717;53.040;18.488;2024-01-30T00:10:53;68.25;;;31.48;;
53618;SDS011;68717;53.040;18.488;2024-01-30T00:11:07;69.13;;;32.47;;
53618;SDS011;68717;53.040;18.488;2024-01-30T00:11:20;66.18;;;31.83;;
53618;SDS011;68717;53.040;18.488;2024-01-30T00:11:33;64.80;;;30.90;;
53618;SDS011;68717;53.040;18.488;2024-01-30T00:11:46;61.83;;;29.90;;
53618;SDS011;68717;53.040;18.488;2024-01-30T00:11:59;61.35;;;29.80;;
53618;SDS011;68717;53.040;18.488;2024-01-30T00:12:12;63.08;;;30.10;;
53618;SDS011;68717;53.040;18.488;2024-01-30T00:12:25;63.28;;;30.23;;
53618;SDS011;68717;53.040;18.488;2024-01-30T00:12:38;60.58;;;29.52;;
53618;SDS011;68717;53.040;18.488;2024-01-30T00:12:52;58.25;;;28.88;;
53618;SDS011;68717;53.040;18.488;2024-01-30T00:13:05;58.20;;;28.73;;
53618;SDS011;68717;53.040;18.488;2024-01-30T00:13:19;58.35;;;28.30;;
53618;SDS011;68717;53.040;18.488;2024-01-30T00:13:32;61.85;;;29.00;;
53618;SDS011;68717;53.040;18.488;2024-01-30T00:13:45;63.28;;;30.15;;
53618;SDS011;68717;53.040;18.488;2024-01-30T00:13:58;60.42;;;30.30;;
53618;SDS011;68717;53.040;18.488;2024-01-30T00:14:11;62.22;;;29.63;;
53618;SDS011;68717;53.040;18.488;2024-01-30T00:14:25;64.05;;;30.08;;
53618;SDS011;68717;53.040;18.488;2024-01-30T00:14:38;63.13;;;30.35;;
53618;SDS011;68717;53.040;18.488;2024-01-30T00:14:52;59.75;;;29.85;;
53618;SDS011;68717;53.040;18.488;2024-01-30T00:15:06;57.22;;;29.73;;
53618;SDS011;68717;53.040;18.488;2024-01-30T00:15:22;57.95;;;29.58;;
53618;SDS011;68717;53.040;18.488;2024-01-30T00:15:35;61.63;;;30.35;;
53618;SDS011;68717;53.040;18.488;2024-01-30T00:15:48;63.20;;;30.52;;
53618;SDS011;68717;53.040;18.488;2024-01-30T00:16:01;62.53;;;29.95;;
53618;SDS011;68717;53.040;18.488;2024-01-30T00:16:19;60.08;;;29.65;;
53618;SDS011;68717;53.040;18.488;2024-01-30T00:16:33;60.28;;;28.98;;
53618;SDS011;68717;53.040;18.488;2024-01-30T00:16:48;58.47;;;28.17;;
53618;SDS011;68717;53.040;18.488;2024-01-30T00:17:01;55.70;;;28.27;;
53618;SDS011;68717;53.040;18.488;2024-01-30T00:17:14;58.70;;;29.02;;
53618;SDS011;68717;53.040;18.488;2024-01-30T00:17:27;60.85;;;28.88;;
53618;SDS011;68717;53.040;18.488;2024-01-30T00:17:40;57.95;;;28.33;;
53618;SDS011;68717;53.040;18.488;2024-01-30T00:17:53;56.47;;;28.15;;
53618;SDS011;68717;53.040;18.488;2024-01-30T00:18:06;57.63;;;28.50;;
53618;SDS011;68717;53.040;18.488;2024-01-30T00:18:19;57.90;;;27.95;;
53618;SDS011;68717;53.040;18.488;2024-01-30T00:18:33;57.55;;;28.05;;
53618;SDS011;68717;53.040;18.488;2024-01-30T00:18:46;55.33;;;27.85;;
53618;SDS011;68717;53.040;18.488;2024-01-30T00:19:00;54.53;;;27.77;;
53618;SDS011;68717;53.040;18.488;2024-01-30T00:19:14;55.22;;;27.88;;
53618;SDS011;68717;53.040;18.488;2024-01-30T00:19:27;56.85;;;27.77;;
53618;SDS011;68717;53.040;18.488;2024-01-30T00:19:40;57.47;;;28.25;;
53618;SDS011;68717;53.040;18.488;2024-01-30T00:19:54;55.03;;;28.42;;
53618;SDS011;68717;53.040;18.488;2024-01-30T00:20:07;55.55;;;28.55;;
53618;SDS011;68717;53.040;18.488;2024-01-30T00:20:22;55.85;;;28.77;;
53618;SDS011;68717;53.040;18.488;2024-01-30T00:20:36;55.17;;;28.63;;
53618;SDS011;68717;53.040;18.488;2024-01-30T00:20:49;55.40;;;28.00;;
53618;SDS011;68717;53.040;18.488;2024-01-30T00:21:01;54.78;;;27.45;;
53618;SDS011;68717;53.040;18.488;2024-01-30T00:21:15;56.25;;;27.65;;
53618;SDS011;68717;53.040;18.488;2024-01-30T00:21:28;55.90;;;27.75;;
53618;SDS011;68717;53.040;18.488;2024-01-30T00:21:41;56.85;;;27.63;;
53618;SDS011;68717;53.040;18.488;2024-01-30T00:21:54;56.72;;;27.90;;
53618;SDS011;68717;53.040;18.488;2024-01-30T00:22:07;58.17;;;28.80;;
53618;SDS011;68717;53.040;18.488;2024-01-30T00:22:21;58.45;;;28.73;;
53618;SDS011;68717;53.040;18.488;2024-01-30T00:22:34;56.60;;;28.33;;
53618;SDS011;68717;53.040;18.488;2024-01-30T00:22:48;54.65;;;28.05;;
53618;SDS011;68717;53.040;18.488;2024-01-30T00:23:01;56.08;;;28.08;;
53618;SDS011;68717;53.040;18.488;2024-01-30T00:23:16;57.58;;;27.80;;
53618;SDS011;68717;53.040;18.488;2024-01-30T00:23:29;56.97;;;27.65;;
53618;SDS011;68717;53.040;18.488;2024-01-30T00:23:42;57.25;;;28.10;;
53618;SDS011;68717;53.040;18.488;2024-01-30T00:23:55;56.95;;;27.92;;
53618;SDS011;68717;53.040;18.488;2024-01-30T00:24:08;56.80;;;28.05;;
53618;SDS011;68717;53.040;18.488;2024-01-30T00:24:21;56.30;;;27.33;;
53618;SDS011;68717;53.040;18.488;2024-01-30T00:24:34;53.75;;;26.90;;
53618;SDS011;68717;53.040;18.488;2024-01-30T00:24:49;53.42;;;27.00;;
53618;SDS011;68717;53.040;18.488;2024-01-30T00:25:02;53.55;;;27.13;;
53618;SDS011;68717;53.040;18.488;2024-01-30T00:25:15;54.95;;;27.67;;
53618;SDS011;68717;53.040;18.488;2024-01-30T00:25:28;55.17;;;27.85;;
53618;SDS011;68717;53.040;18.488;2024-01-30T00:25:41;54.45;;;27.80;;
53618;SDS011;68717;53.040;18.488;2024-01-30T00:25:54;54.40;;;28.10;;
53618;SDS011;68717;53.040;18.488;2024-01-30T00:26:09;53.17;;;27.70;;
53618;SDS011;68717;53.040;18.488;2024-01-30T00:26:23;54.45;;;28.15;;
53618;SDS011;68717;53.040;18.488;2024-01-30T00:26:36;53.60;;;27.42;;
53618;SDS011;68717;53.040;18.488;2024-01-30T00:26:49;52.50;;;27.08;;
53618;SDS011;68717;53.040;18.488;2024-01-30T00:27:03;53.92;;;27.52;;
53618;SDS011;68717;53.040;18.488;2024-01-30T00:27:17;54.92;;;27.77;;
53618;SDS011;68717;53.040;18.488;2024-01-30T00:27:30;56.13;;;27.50;;
53618;SDS011;68717;53.040;18.488;2024-01-30T00:27:43;56.28;;;26.95;;
53618;SDS011;68717;53.040;18.488;2024-01-30T00:27:56;54.90;;;26.95;;
53618;SDS011;68717;53.040;18.488;2024-01-30T00:28:09;53.95;;;26.58;;
53618;SDS011;68717;53.040;18.488;2024-01-30T00:28:22;54.90;;;26.77;;
53618;SDS011;68717;53.040;18.488;2024-01-30T00:28:35;55.65;;;27.15;;
53618;SDS011;68717;53.040;18.488;2024-01-30T00:28:48;53.67;;;27.45;;
53618;SDS011;68717;53.040;18.488;2024-01-30T00:29:02;54.33;;;27.52;;
53618;SDS011;68717;53.040;18.488;2024-01-30T00:29:15;54.35;;;27.55;;
53618;SDS011;68717;53.040;18.488;2024-01-30T00:29:31;56.03;;;27.42;;
53618;SDS011;68717;53.040;18.488;2024-01-30T00:29:46;56.13;;;27.45;;
53618;SDS011;68717;53.040;18.488;2024-01-30T00:29:59;54.28;;;27.23;;
53618;SDS011;68717;53.040;18.488;2024-01-30T00:30:12;53.65;;;26.85;;
53618;SDS011;68717;53.040;18.488;2024-01-30T00:30:25;52.92;;;26.58;;
53618;SDS011;68717;53.040;18.488;2024-01-30T00:30:38;53.17;;;26.75;;
53618;SDS011;68717;53.040;18.488;2024-01-30T00:30:52;51.47;;;26.65;;
53618;SDS011;68717;53.040;18.488;2024-01-30T00:31:05;50.65;;;26.83;;
53618;SDS011;68717;53.040;18.488;2024-01-30T00:31:18;50.88;;;26.88;;
53618;SDS011;68717;53.040;18.488;2024-01-30T00:31:31;53.08;;;26.67;;
53618;SDS011;68717;53.040;18.488;2024-01-30T00:31:44;56.85;;;27.10;;
53618;SDS011;68717;53.040;18.488;2024-01-30T00:31:59;56.42;;;27.08;;
53618;SDS011;68717;53.040;18.488;2024-01-30T00:32:12;53.40;;;26.27;;
53618;SDS011;68717;53.040;18.488;2024-01-30T00:32:25;52.45;;;25.90;;
53618;SDS011;68717;53.040;18.488;2024-01-30T00:32:39;53.03;;;26.40;;
53618;SDS011;68717;53.040;18.488;2024-01-30T00:32:53;52.53;;;26.38;;
53618;SDS011;68717;53.040;18.488;2024-01-30T00:33:06;52.92;;;26.52;;
53618;SDS011;68717;53.040;18.488;2024-01-30T00:33:20;52.83;;;26.52;;
53618;SDS011;68717;53.040;18.488;2024-01-30T00:33:34;51.70;;;26.83;;
53618;SDS011;68717;53.040;18.488;2024-01-30T00:33:47;52.40;;;26.95;;
53618;SDS011;68717;53.040;18.488;2024-01-30T00:34:00;53.30;;;26.90;;
53618;SDS011;68717;53.040;18.488;2024-01-30T00:34:13;51.58;;;26.55;;
53618;SDS011;68717;53.040;18.488;2024-01-30T00:34:26;51.00;;;26.70;;
53618;SDS011;68717;53.040;18.488;2024-01-30T00:34:41;53.92;;;27.42;;
53618;SDS011;68717;53.040;18.488;2024-01-30T00:34:54;55.03;;;27.50;;
53618;SDS011;68717;53.040;18.488;2024-01-30T00:35:07;54.38;;;26.88;;
53618;SDS011;68717;53.040;18.488;2024-01-30T00:35:22;53.88;;;26.77;;
53618;SDS011;68717;53.040;18.488;2024-01-30T00:35:36;53.88;;;26.73;;
53618;SDS011;68717;53.040;18.488;2024-01-30T00:35:49;53.72;;;26.88;;
53618;SDS011;68717;53.040;18.488;2024-01-30T00:36:02;53.88;;;26.95;;
53618;SDS011;68717;53.040;18.488;2024-01-30T00:36:16;54.17;;;26.88;;
53618;SDS011;68717;53.040;18.488;2024-01-30T00:36:29;54.33;;;27.00;;
53618;SDS011;68717;53.040;18.488;2024-01-30T00:36:42;54.72;;;27.45;;
53618;SDS011;68717;53.040;18.488;2024-01-30T00:36:55;54.55;;;27.77;;
53618;SDS011;68717;53.040;18.488;2024-01-30T00:37:08;52.40;;;27.40;;
53618;SDS011;68717;53.040;18.488;2024-01-30T00:37:22;51.50;;;26.77;;
53618;SDS011;68717;53.040;18.488;2024-01-30T00:37:36;53.60;;;26.85;;
53618;SDS011;68717;53.040;18.488;2024-01-30T00:37:49;53.28;;;26.90;;
53618;SDS011;68717;53.040;18.488;2024-01-30T00:38:03;52.13;;;26.73;;
53618;SDS011;68717;53.040;18.488;2024-01-30T00:38:16;50.47;;;26.35;;
53618;SDS011;68717;53.040;18.488;2024-01-30T00:38:29;52.97;;;26.60;;
53618;SDS011;68717;53.040;18.488;2024-01-30T00:38:42;53.67;;;26.60;;
53618;SDS011;68717;53.040;18.488;2024-01-30T00:38:55;52.47;;;26.45;;
53618;SDS011;68717;53.040;18.488;2024-01-30T00:39:08;51.85;;;26.42;;
53618;SDS011;68717;53.040;18.488;2024-01-30T00:39:21;50.72;;;26.33;;
53618;SDS011;68717;53.040;18.488;2024-01-30T00:39:35;49.40;;;25.42;;
53618;SDS011;68717;53.040;18.488;2024-01-30T00:39:49;49.10;;;25.48;;
53618;SDS011;68717;53.040;18.488;2024-01-30T00:40:02;52.00;;;26.40;;
53618;SDS011;68717;53.040;18.488;2024-01-30T00:40:16;53.83;;;27.20;;
53618;SDS011;68717;53.040;18.488;2024-01-30T00:40:30;52.88;;;27.02;;
53618;SDS011;68717;53.040;18.488;2024-01-30T00:40:43;53.03;;;26.80;;
53618;SDS011;68717;53.040;18.488;2024-01-30T00:40:56;52.33;;;26.83;;
53618;SDS011;68717;53.040;18.488;2024-01-30T00:41:09;53.08;;;27.23;;
53618;SDS011;68717;53.040;18.488;2024-01-30T00:41:22;53.88;;;27.05;;
53618;SDS011;68717;53.040;18.488;2024-01-30T00:41:35;52.40;;;26.63;;
53618;SDS011;68717;53.040;18.488;2024-01-30T00:41:48;52.53;;;27.05;;
53618;SDS011;68717;53.040;18.488;2024-01-30T00:42:02;53.17;;;27.13;;
53618;SDS011;68717;53.040;18.488;2024-01-30T00:42:15;54.55;;;27.00;;
53618;SDS011;68717;53.040;18.488;2024-01-30T00:42:29;55.78;;;27.15;;
53618;SDS011;68717;53.040;18.488;2024-01-30T00:42:42;55.45;;;27.42;;
53618;SDS011;68717;53.040;18.488;2024-01-30T00:42:55;55.90;;;27.50;;
53618;SDS011;68717;53.040;18.488;2024-01-30T00:43:08;54.88;;;27.08;;
53618;SDS011;68717;53.040;18.488;2024-01-30T00:43:21;55.00;;;27.58;;
53618;SDS011;68717;53.040;18.488;2024-01-30T00:43:34;55.47;;;27.70;;
53618;SDS011;68717;53.040;18.488;2024-01-30T00:43:47;54.78;;;27.65;;
53618;SDS011;68717;53.040;18.488;2024-01-30T00:44:01;56.20;;;27.60;;
53618;SDS011;68717;53.040;18.488;2024-01-30T00:44:14;55.80;;;27.77;;
53618;SDS011;68717;53.040;18.488;2024-01-30T00:44:27;57.20;;;28.13;;
53618;SDS011;68717;53.040;18.488;2024-01-30T00:44:40;57.55;;;27.27;;
53618;SDS011;68717;53.040;18.488;2024-01-30T00:44:53;58.05;;;27.48;;
53618;SDS011;68717;53.040;18.488;2024-01-30T00:45:11;57.72;;;27.75;;
53618;SDS011;68717;53.040;18.488;2024-01-30T00:45:24;56.15;;;27.70;;
53618;SDS011;68717;53.040;18.488;2024-01-30T00:45:37;55.33;;;27.63;;
53618;SDS011;68717;53.040;18.488;2024-01-30T00:45:51;53.63;;;27.00;;
53618;SDS011;68717;53.040;18.488;2024-01-30T00:46:05;52.40;;;27.08;;
53618;SDS011;68717;53.040;18.488;2024-01-30T00:46:21;56.72;;;28.10;;
53618;SDS011;68717;53.040;18.488;2024-01-30T00:46:34;57.30;;;27.70;;
53618;SDS011;68717;53.040;18.488;2024-01-30T00:46:47;54.35;;;27.42;;
53618;SDS011;68717;53.040;18.488;2024-01-30T00:47:01;52.35;;;27.35;;
53618;SDS011;68717;53.040;18.488;2024-01-30T00:47:15;52.90;;;27.33;;
53618;SDS011;68717;53.040;18.488;2024-01-30T00:47:28;53.85;;;27.08;;
53618;SDS011;68717;53.040;18.488;2024-01-30T00:47:45;54.55;;;26.92;;
53618;SDS011;68717;53.040;18.488;2024-01-30T00:47:58;54.60;;;27.30;;
53618;SDS011;68717;53.040;18.488;2024-01-30T00:48:14;55.28;;;27.13;;
53618;SDS011;68717;53.040;18.488;2024-01-30T00:48:27;55.38;;;27.38;;
53618;SDS011;68717;53.040;18.488;2024-01-30T00:48:40;53.33;;;27.42;;
53618;SDS011;68717;53.040;18.488;2024-01-30T00:48:53;51.30;;;26.75;;
53618;SDS011;68717;53.040;18.488;2024-01-30T00:49:06;50.42;;;26.55;;
53618;SDS011;68717;53.040;18.488;2024-01-30T00:49:19;53.53;;;26.98;;
53618;SDS011;68717;53.040;18.488;2024-01-30T00:49:33;53.95;;;27.15;;
53618;SDS011;68717;53.040;18.488;2024-01-30T00:49:47;52.53;;;27.02;;
53618;SDS011;68717;53.040;18.488;2024-01-30T00:50:00;51.72;;;26.70;;
53618;SDS011;68717;53.040;18.488;2024-01-30T00:50:13;51.25;;;26.38;;
53618;SDS011;68717;53.040;18.488;2024-01-30T00:50:26;51.58;;;26.92;;
53618;SDS011;68717;53.040;18.488;2024-01-30T00:50:39;53.78;;;27.23;;
53618;SDS011;68717;53.040;18.488;2024-01-30T00:50:52;53.63;;;27.02;;
53618;SDS011;68717;53.040;18.488;2024-01-30T00:51:06;51.58;;;26.65;;
53618;SDS011;68717;53.040;18.488;2024-01-30T00:51:19;53.83;;;26.92;;
53618;SDS011;68717;53.040;18.488;2024-01-30T00:51:32;54.60;;;26.85;;
53618;SDS011;68717;53.040;18.488;2024-01-30T00:51:45;52.05;;;26.35;;
53618;SDS011;68717;53.040;18.488;2024-01-30T00:51:59;51.03;;;25.70;;
53618;SDS011;68717;53.040;18.488;2024-01-30T00:52:11;52.42;;;25.80;;
53618;SDS011;68717;53.040;18.488;2024-01-30T00:52:24;50.95;;;25.73;;
53618;SDS011;68717;53.040;18.488;2024-01-30T00:52:37;51.10;;;26.15;;
53618;SDS011;68717;53.040;18.488;2024-01-30T00:52:51;51.00;;;25.98;;
53618;SDS011;68717;53.040;18.488;2024-01-30T00:53:04;48.65;;;25.42;;
53618;SDS011;68717;53.040;18.488;2024-01-30T00:53:17;48.55;;;25.15;;
53618;SDS011;68717;53.040;18.488;2024-01-30T00:53:30;48.92;;;24.80;;
53618;SDS011;68717;53.040;18.488;2024-01-30T00:53:44;48.50;;;24.90;;
53618;SDS011;68717;53.040;18.488;2024-01-30T00:53:57;49.35;;;25.23;;
53618;SDS011;68717;53.040;18.488;2024-01-30T00:54:10;51.42;;;25.27;;
53618;SDS011;68717;53.040;18.488;2024-01-30T00:54:23;50.13;;;24.48;;
53618;SDS011;68717;53.040;18.488;2024-01-30T00:54:36;49.33;;;24.25;;
53618;SDS011;68717;53.040;18.488;2024-01-30T00:54:49;49.25;;;23.98;;
53618;SDS011;68717;53.040;18.488;2024-01-30T00:55:03;49.92;;;23.40;;
53618;SDS011;68717;53.040;18.488;2024-01-30T00:55:16;49.72;;;23.70;;
53618;SDS011;68717;53.040;18.488;2024-01-30T00:55:29;50.60;;;24.40;;
53618;SDS011;68717;53.040;18.488;2024-01-30T00:55:43;49.45;;;24.42;;
53618;SDS011;68717;53.040;18.488;2024-01-30T00:55:56;47.95;;;24.05;;
53618;SDS011;68717;53.040;18.488;2024-01-30T00:56:09;48.30;;;23.98;;
53618;SDS011;68717;53.040;18.488;2024-01-30T00:56:22;49.22;;;24.08;;
53618;SDS011;68717;53.040;18.488;2024-01-30T00:56:36;48.58;;;24.05;;
53618;SDS011;68717;53.040;18.488;2024-01-30T00:56:49;46.17;;;23.33;;
53618;SDS011;68717;53.040;18.488;2024-01-30T00:57:02;45.20;;;22.58;;
53618;SDS011;68717;53.040;18.488;2024-01-30T00:57:15;47.83;;;23.02;;
53618;SDS011;68717;53.040;18.488;2024-01-30T00:57:29;47.65;;;23.40;;
53618;SDS011;68717;53.040;18.488;2024-01-30T00:57:42;46.33;;;23.58;;
53618;SDS011;68717;53.040;18.488;2024-01-30T00:57:57;45.47;;;23.88;;
53618;SDS011;68717;53.040;18.488;2024-01-30T00:58:10;47.58;;;24.00;;
53618;SDS011;68717;53.040;18.488;2024-01-30T00:58:23;48.08;;;24.27;;
53618;SDS011;68717;53.040;18.488;2024-01-30T00:58:36;46.58;;;24.17;;
53618;SDS011;68717;53.040;18.488;2024-01-30T00:58:49;47.47;;;23.55;;
53618;SDS011;68717;53.040;18.488;2024-01-30T00:59:02;45.85;;;22.83;;
53618;SDS011;68717;53.040;18.488;2024-01-30T00:59:15;46.25;;;22.90;;
53618;SDS011;68717;53.040;18.488;2024-01-30T00:59:28;47.05;;;23.20;;
53618;SDS011;68717;53.040;18.488;2024-01-30T00:59:43;46.25;;;23.27;;
53618;SDS011;68717;53.040;18.488;2024-01-30T00:59:57;43.75;;;23.05;;
53618;SDS011;68717;53.040;18.488;2024-01-30T01:00:11;46.30;;;23.05;;
53618;SDS011;68717;53.040;18.488;2024-01-30T01:00:25;49.42;;;23.73;;
53618;SDS011;68717;53.040;18.488;2024-01-30T01:00:41;46.03;;;23.45;;
53618;SDS011;68717;53.040;18.488;2024-01-30T01:00:54;44.10;;;23.35;;
53618;SDS011;68717;53.040;18.488;2024-01-30T01:01:07;44.63;;;23.63;;
53618;SDS011;68717;53.040;18.488;2024-01-30T01:01:21;45.78;;;23.52;;
53618;SDS011;68717;53.040;18.488;2024-01-30T01:01:34;47.13;;;23.27;;
53618;SDS011;68717;53.040;18.488;2024-01-30T01:01:47;47.42;;;23.08;;
53618;SDS011;68717;53.040;18.488;2024-01-30T01:02:03;46.65;;;23.20;;
53618;SDS011;68717;53.040;18.488;2024-01-30T01:02:16;47.78;;;23.55;;
53618;SDS011;68717;53.040;18.488;2024-01-30T01:02:29;46.80;;;24.05;;
53618;SDS011;68717;53.040;18.488;2024-01-30T01:02:42;45.80;;;23.73;;
53618;SDS011;68717;53.040;18.488;2024-01-30T01:02:55;45.08;;;23.02;;
53618;SDS011;68717;53.040;18.488;2024-01-30T01:03:08;45.95;;;23.20;;
53618;SDS011;68717;53.040;18.488;2024-01-30T01:03:22;46.90;;;23.45;;
53618;SDS011;68717;53.040;18.488;2024-01-30T01:03:35;47.47;;;23.48;;
53618;SDS011;68717;53.040;18.488;2024-01-30T01:03:48;47.53;;;23.55;;
53618;SDS011;68717;53.040;18.488;2024-01-30T01:04:02;46.45;;;23.67;;
53618;SDS011;68717;53.040;18.488;2024-01-30T01:04:15;47.63;;;24.38;;
53618;SDS011;68717;53.040;18.488;2024-01-30T01:04:30;47.63;;;23.73;;
53618;SDS011;68717;53.040;18.488;2024-01-30T01:04:44;45.80;;;22.77;;
53618;SDS011;68717;53.040;18.488;2024-01-30T01:04:57;45.40;;;22.90;;
53618;SDS011;68717;53.040;18.488;2024-01-30T01:05:10;48.55;;;23.58;;
53618;SDS011;68717;53.040;18.488;2024-01-30T01:05:23;49.88;;;24.27;;
53618;SDS011;68717;53.040;18.488;2024-01-30T01:05:36;51.85;;;24.92;;
53618;SDS011;68717;53.040;18.488;2024-01-30T01:05:50;50.05;;;24.85;;
53618;SDS011;68717;53.040;18.488;2024-01-30T01:06:03;46.90;;;24.00;;
53618;SDS011;68717;53.040;18.488;2024-01-30T01:06:17;47.58;;;23.92;;
53618;SDS011;68717;53.040;18.488;2024-01-30T01:06:30;47.60;;;24.10;;
53618;SDS011;68717;53.040;18.488;2024-01-30T01:06:43;50.10;;;24.30;;
53618;SDS011;68717;53.040;18.488;2024-01-30T01:06:56;49.33;;;24.13;;
53618;SDS011;68717;53.040;18.488;2024-01-30T01:07:10;48.00;;;24.30;;
53618;SDS011;68717;53.040;18.488;2024-01-30T01:07:24;46.60;;;24.25;;
53618;SDS011;68717;53.040;18.488;2024-01-30T01:07:37;46.22;;;24.15;;
53618;SDS011;68717;53.040;18.488;2024-01-30T01:07:50;48.92;;;24.60;;
53618;SDS011;68717;53.040;18.488;2024-01-30T01:08:03;48.75;;;24.20;;
53618;SDS011;68717;53.040;18.488;2024-01-30T01:08:17;49.55;;;24.48;;
53618;SDS011;68717;53.040;18.488;2024-01-30T01:08:30;49.97;;;24.08;;
53618;SDS011;68717;53.040;18.488;2024-01-30T01:08:43;48.65;;;23.85;;
53618;SDS011;68717;53.040;18.488;2024-01-30T01:08:56;47.58;;;24.15;;
53618;SDS011;68717;53.040;18.488;2024-01-30T01:09:13;47.05;;;24.50;;
53618;SDS011;68717;53.040;18.488;2024-01-30T01:09:27;48.65;;;24.60;;
53618;SDS011;68717;53.040;18.488;2024-01-30T01:09:40;49.95;;;24.52;;
53618;SDS011;68717;53.040;18.488;2024-01-30T01:09:53;49.70;;;24.08;;
53618;SDS011;68717;53.040;18.488;2024-01-30T01:10:08;48.95;;;23.63;;
53618;SDS011;68717;53.040;18.488;2024-01-30T01:10:23;48.17;;;23.90;;
53618;SDS011;68717;53.040;18.488;2024-01-30T01:10:36;47.53;;;24.38;;
53618;SDS011;68717;53.040;18.488;2024-01-30T01:10:50;48.20;;;24.42;;
53618;SDS011;68717;53.040;18.488;2024-01-30T01:11:03;49.50;;;24.38;;
53618;SDS011;68717;53.040;18.488;2024-01-30T01:11:16;48.33;;;24.42;;
53618;SDS011;68717;53.040;18.488;2024-01-30T01:11:30;46.30;;;24.52;;
53618;SDS011;68717;53.040;18.488;2024-01-30T01:11:43;47.08;;;24.55;;
53618;SDS011;68717;53.040;18.488;2024-01-30T01:11:57;47.65;;;24.17;;
53618;SDS011;68717;53.040;18.488;2024-01-30T01:12:12;48.80;;;24.30;;
53618;SDS011;68717;53.040;18.488;2024-01-30T01:12:25;48.38;;;24.25;;
53618;SDS011;68717;53.040;18.488;2024-01-30T01:12:38;47.00;;;24.05;;
53618;SDS011;68717;53.040;18.488;2024-01-30T01:12:50;45.88;;;23.55;;
53618;SDS011;68717;53.040;18.488;2024-01-30T01:13:03;47.78;;;23.80;;
53618;SDS011;68717;53.040;18.488;2024-01-30T01:13:18;50.88;;;24.65;;
53618;SDS011;68717;53.040;18.488;2024-01-30T01:13:31;51.20;;;24.77;;
53618;SDS011;68717;53.040;18.488;2024-01-30T01:13:44;49.30;;;24.02;;
53618;SDS011;68717;53.040;18.488;2024-01-30T01:13:56;48.05;;;23.83;;
53618;SDS011;68717;53.040;18.488;2024-01-30T01:14:10;47.17;;;23.77;;
53618;SDS011;68717;53.040;18.488;2024-01-30T01:14:23;47.83;;;24.08;;
53618;SDS011;68717;53.040;18.488;2024-01-30T01:14:36;46.63;;;24.40;;
53618;SDS011;68717;53.040;18.488;2024-01-30T01:14:49;47.17;;;24.75;;
53618;SDS011;68717;53.040;18.488;2024-01-30T01:15:02;48.60;;;24.50;;
53618;SDS011;68717;53.040;18.488;2024-01-30T01:15:17;48.17;;;23.77;;
53618;SDS011;68717;53.040;18.488;2024-01-30T01:15:30;48.25;;;23.63;;
53618;SDS011;68717;53.040;18.488;2024-01-30T01:15:43;48.55;;;23.83;;
53618;SDS011;68717;53.040;18.488;2024-01-30T01:15:56;46.65;;;23.80;;
53618;SDS011;68717;53.040;18.488;2024-01-30T01:16:09;47.22;;;23.50;;
53618;SDS011;68717;53.040;18.488;2024-01-30T01:16:22;49.13;;;24.00;;
53618;SDS011;68717;53.040;18.488;2024-01-30T01:16:35;47.95;;;24.10;;
53618;SDS011;68717;53.040;18.488;2024-01-30T01:16:49;47.40;;;23.73;;
53618;SDS011;68717;53.040;18.488;2024-01-30T01:17:05;48.70;;;23.92;;
53618;SDS011;68717;53.040;18.488;2024-01-30T01:17:18;48.97;;;24.20;;
53618;SDS011;68717;53.040;18.488;2024-01-30T01:17:31;47.75;;;23.75;;
53618;SDS011;68717;53.040;18.488;2024-01-30T01:17:44;46.35;;;22.88;;
53618;SDS011;68717;53.040;18.488;2024-01-30T01:17:57;47.45;;;23.13;;
53618;SDS011;68717;53.040;18.488;2024-01-30T01:18:10;48.67;;;23.45;;